createdAt,value
2018-04-24T00:01:45.635Z,82.10
2018-04-24T00:04:13.162Z,82.00
2018-04-24T00:06:40.691Z,82.90
2018-04-24T00:09:08.220Z,82.90
2018-04-24T00:11:35.752Z,83.00
2018-04-24T00:14:16.335Z,83.40
2018-04-24T00:16:43.876Z,83.50
2018-04-24T00:19:11.400Z,83.40
2018-04-24T00:27:30.080Z,84.20
2018-04-24T00:29:57.638Z,84.20
2018-04-24T00:32:25.223Z,84.50
2018-04-24T00:34:52.750Z,84.50
2018-04-24T00:37:21.064Z,84.80
2018-04-24T00:39:48.586Z,84.70
2018-04-24T00:42:16.107Z,85.10
2018-04-24T00:44:43.631Z,85.00
2018-04-24T00:47:11.164Z,85.60
2018-04-24T00:49:38.684Z,86.20
2018-04-24T00:52:06.213Z,85.50
2018-04-24T00:54:36.868Z,85.80
2018-04-24T00:57:04.459Z,85.80
2018-04-24T00:59:32.032Z,86.00
2018-04-24T01:02:00.332Z,86.80
2018-04-24T01:04:27.872Z,86.80
2018-04-24T01:06:55.404Z,86.10
2018-04-24T01:09:22.959Z,85.90
2018-04-24T01:11:51.104Z,85.60
2018-04-24T01:20:17.981Z,84.40
2018-04-24T01:28:36.076Z,82.80
2018-04-24T01:31:03.607Z,83.30
2018-04-24T01:33:31.140Z,82.80
2018-04-24T01:35:58.680Z,82.80
2018-04-24T01:38:26.216Z,82.80
2018-04-24T01:40:53.749Z,83.10
2018-04-24T01:43:21.314Z,83.70
2018-04-24T01:45:49.265Z,84.70
2018-04-24T01:48:16.800Z,85.50
2018-04-24T01:50:44.319Z,86.00
2018-04-24T01:53:11.870Z,85.70
2018-04-24T01:55:39.389Z,85.40
2018-04-24T01:58:07.729Z,84.40
2018-04-24T02:00:38.495Z,84.40
2018-04-24T02:03:06.015Z,84.30
2018-04-24T02:05:33.534Z,84.40
2018-04-24T02:08:01.879Z,85.60
2018-04-24T02:10:29.431Z,85.50
2018-04-24T02:15:50.238Z,87.90
2018-04-24T02:18:39.239Z,87.90
2018-04-24T04:19:59.136Z,85.60
2018-04-24T04:22:38.481Z,85.80
2018-04-24T04:25:06.125Z,85.70
2018-04-24T04:27:37.029Z,86.00
2018-04-24T04:30:04.577Z,86.30
2018-04-24T04:32:32.141Z,86.20
2018-04-24T04:34:59.684Z,86.20
2018-04-24T04:37:27.980Z,86.30
2018-04-24T04:39:55.516Z,86.30
2018-04-24T04:42:23.789Z,86.20
2018-04-24T04:44:51.388Z,86.20
2018-04-24T04:47:19.639Z,86.20
2018-04-24T04:49:50.689Z,86.20
2018-04-24T04:52:18.315Z,86.50
2018-04-24T04:54:46.028Z,86.70
2018-04-24T04:57:13.564Z,86.80
2018-04-24T04:59:41.114Z,87.00
2018-04-24T05:02:08.687Z,87.10
2018-04-24T05:04:36.219Z,87.00
2018-04-24T05:07:06.967Z,87.00
2018-04-24T05:09:34.499Z,87.70
2018-04-24T05:12:02.081Z,87.00
2018-04-24T06:18:23.867Z,80.80
2018-04-24T07:15:59.192Z,75.40
2018-04-24T07:18:26.794Z,75.90
2018-04-24T07:21:15.003Z,75.60
2018-04-24T07:23:42.579Z,75.30
2018-04-24T07:26:10.104Z,76.00
2018-04-24T07:28:41.707Z,76.40
2018-04-24T07:31:09.319Z,76.30
2018-04-24T07:33:36.855Z,76.30
2018-04-24T07:36:04.399Z,76.80
2018-04-24T07:38:31.976Z,76.80
2018-04-24T07:40:59.571Z,77.10
2018-04-24T07:43:27.068Z,76.40
2018-04-24T07:45:54.628Z,77.40
2018-04-24T07:48:22.315Z,77.20
2018-04-24T07:50:49.859Z,77.00
2018-04-24T07:53:17.501Z,77.00
2018-04-24T07:55:48.388Z,77.40
2018-04-24T07:58:15.923Z,76.80
2018-04-24T08:00:43.475Z,78.00
2018-04-24T08:03:11.031Z,78.10
2018-04-24T08:05:38.569Z,78.20
2018-04-24T08:08:06.130Z,78.50
2018-04-24T08:10:33.689Z,79.40
2018-04-24T08:18:52.407Z,79.70
2018-04-24T09:16:07.358Z,74.50
2018-04-24T09:18:38.279Z,73.50
2018-04-24T09:21:05.810Z,73.40
2018-04-24T09:23:45.270Z,72.80
2018-04-24T10:15:32.993Z,78.80
2018-04-24T10:20:54.538Z,78.40
2018-04-24T11:15:23.627Z,81.10
2018-04-24T11:17:51.191Z,81.50
2018-04-24T11:20:18.761Z,82.60
2018-04-24T12:17:45.925Z,78.70
2018-04-24T12:20:13.480Z,78.70
2018-04-24T12:22:41.014Z,78.20
2018-04-24T12:25:08.625Z,78.20
2018-04-24T12:27:36.216Z,80.00
2018-04-24T12:30:03.778Z,80.40
2018-04-24T12:32:31.337Z,80.90
2018-04-24T12:35:02.178Z,81.40
2018-04-24T12:37:29.727Z,80.90
2018-04-24T12:39:58.060Z,79.10
2018-04-24T12:42:25.656Z,79.10
2018-04-24T12:44:53.975Z,79.20
2018-04-24T12:47:21.527Z,79.20
2018-04-24T12:49:49.079Z,79.70
2018-04-24T12:52:19.806Z,80.50
2018-04-24T12:54:47.364Z,80.80
2018-04-24T12:57:14.909Z,80.70
2018-04-24T12:59:43.221Z,81.80
2018-04-24T13:02:10.764Z,81.80
2018-04-24T13:04:38.331Z,80.30
2018-04-24T13:07:05.870Z,79.80
2018-04-24T13:09:33.441Z,79.90
2018-04-24T13:12:01.743Z,81.40
2018-04-24T13:14:29.301Z,81.40
2018-04-24T13:19:50.152Z,79.70
2018-04-24T13:22:21.043Z,81.80
2018-04-24T13:24:48.610Z,82.40
2018-04-24T13:27:16.164Z,81.40
2018-04-24T13:29:43.699Z,81.20
2018-04-24T13:32:11.235Z,80.30
2018-04-24T13:34:38.775Z,80.20
2018-04-24T13:37:06.361Z,79.20
2018-04-24T13:39:33.886Z,78.00
2018-04-24T13:42:01.432Z,78.00
2018-04-24T13:44:29.018Z,76.50
2018-04-24T13:46:56.562Z,74.20
2018-04-24T13:49:24.108Z,74.90
2018-04-24T13:51:54.726Z,73.50
2018-04-24T13:54:22.276Z,72.20
2018-04-24T13:56:50.624Z,74.10
2018-04-24T13:59:18.182Z,74.10
2018-04-24T14:01:45.737Z,74.40
2018-04-24T14:04:13.277Z,75.30
2018-04-24T14:06:40.914Z,77.20
2018-04-24T14:09:08.463Z,77.80
2018-04-24T14:11:36.777Z,73.50
2018-04-24T14:14:07.560Z,73.40
2018-04-24T14:19:28.638Z,72.40
2018-04-24T14:25:02.532Z,74.00
2018-04-24T14:27:30.130Z,72.60
2018-04-24T14:29:57.694Z,68.40
2018-04-24T14:32:25.244Z,65.70
2018-04-24T14:34:52.782Z,65.10
2018-04-24T14:37:20.328Z,63.80
2018-04-24T14:39:48.640Z,65.40
2018-04-24T14:42:22.712Z,65.40
2018-04-24T14:44:50.283Z,66.80
2018-04-24T14:47:18.599Z,70.40
2018-04-24T14:49:46.131Z,70.40
2018-04-24T14:52:13.663Z,70.70
2018-04-24T14:54:41.383Z,70.90
2018-04-24T14:57:08.924Z,67.80
2018-04-24T14:59:39.601Z,66.70
2018-04-24T15:02:07.145Z,62.50
2018-04-24T15:04:34.679Z,61.80
2018-04-24T15:07:02.270Z,62.30
2018-04-24T15:09:29.816Z,62.70
2018-04-24T15:11:57.342Z,60.50
2018-04-24T15:26:14.604Z,56.60
2018-04-24T15:28:42.209Z,56.90
2018-04-24T15:31:09.848Z,56.60
2018-04-24T15:33:37.343Z,56.70
2018-04-24T15:36:04.906Z,57.00
2018-04-24T15:38:32.450Z,55.90
2018-04-24T15:41:00.060Z,56.50
2018-04-24T15:43:27.603Z,56.60
2018-04-24T15:45:55.138Z,57.90
2018-04-24T15:48:22.677Z,58.00
2018-04-24T15:50:53.248Z,56.80
2018-04-24T15:53:20.779Z,57.60
2018-04-24T15:55:48.317Z,58.10
2018-04-24T15:58:15.856Z,57.50
2018-04-24T16:00:43.410Z,58.20
2018-04-24T16:03:10.947Z,58.10
2018-04-24T16:05:38.475Z,58.60
2018-04-24T16:08:06.774Z,58.50
2018-04-24T16:10:34.306Z,58.40
2018-04-24T16:15:56.661Z,60.00
2018-04-24T16:18:27.252Z,60.00
2018-04-24T18:16:37.512Z,70.10
2018-04-24T18:19:05.079Z,69.30
2018-04-24T18:21:32.766Z,70.00
2018-04-24T18:24:07.593Z,69.70
2018-04-24T18:26:35.796Z,70.20
2018-04-24T18:29:04.876Z,71.70
2018-04-24T18:31:33.241Z,73.80
2018-04-24T18:34:00.789Z,73.70
2018-04-24T18:36:29.262Z,75.40
2018-04-24T18:38:56.926Z,76.90
2018-04-24T18:41:25.053Z,77.40
2018-04-24T18:43:53.476Z,78.30
2018-04-24T18:46:21.048Z,79.10
2018-04-24T18:48:48.622Z,79.60
2018-04-24T18:51:16.215Z,80.30
2018-04-24T18:53:48.210Z,81.00
2018-04-24T18:56:17.052Z,80.90
2018-04-24T18:58:44.631Z,81.70
2018-04-24T19:01:12.192Z,82.40
2018-04-24T19:03:41.096Z,82.80
2018-04-24T19:06:09.389Z,83.20
2018-04-24T19:08:37.092Z,83.60
2018-04-24T19:11:05.081Z,83.90
2018-04-24T20:17:13.740Z,83.20
2018-04-24T20:25:27.992Z,84.50
2018-04-24T20:28:01.440Z,85.20
2018-04-24T20:30:29.744Z,86.80
2018-04-24T20:32:57.288Z,86.70
2018-04-24T20:35:24.825Z,85.20
2018-04-24T20:37:53.137Z,84.50
2018-04-24T20:40:20.772Z,84.50
2018-04-24T20:42:48.315Z,82.60
2018-04-24T20:45:15.868Z,82.20
2018-04-24T20:47:43.444Z,82.10
2018-04-24T20:50:11.012Z,80.70
2018-04-24T20:52:43.283Z,80.50
2018-04-24T20:55:11.574Z,80.90
2018-04-24T20:57:39.122Z,80.10
2018-04-24T21:00:07.516Z,79.50
2018-04-24T21:02:35.061Z,79.50
2018-04-24T21:05:02.601Z,79.00
2018-04-24T21:07:30.967Z,77.50
2018-04-24T21:09:58.472Z,77.50
2018-04-24T21:12:26.094Z,78.30
2018-04-24T21:14:53.637Z,78.60
2018-04-24T21:17:21.162Z,80.30
2018-04-24T22:26:22.807Z,93.90
2018-04-24T22:28:50.328Z,93.90
2018-04-24T22:31:17.857Z,93.80
2018-04-24T22:33:45.395Z,93.90
2018-04-24T22:36:12.932Z,94.10
2018-04-24T22:38:40.465Z,94.30
2018-04-24T22:41:08.002Z,95.30
2018-04-24T22:43:36.304Z,95.30
2018-04-24T22:46:03.847Z,95.30
2018-04-24T22:48:31.380Z,96.10
2018-04-24T22:51:02.275Z,96.40
2018-04-24T22:53:29.808Z,96.00
2018-04-24T22:55:58.104Z,95.40
2018-04-24T22:58:25.628Z,95.40
2018-04-24T23:00:53.172Z,95.70
2018-04-24T23:03:20.699Z,96.30
2018-04-24T23:05:48.240Z,96.80
2018-04-24T23:08:15.764Z,96.50
2018-04-24T23:10:55.266Z,97.00
2018-04-24T23:13:34.641Z,96.60
2018-04-24T23:30:07.061Z,97.10
2018-04-24T23:32:34.590Z,97.90
2018-04-24T23:35:02.136Z,98.10
2018-04-24T23:37:30.443Z,98.40
2018-04-24T23:39:57.998Z,98.40
2018-04-24T23:42:25.591Z,98.10
2018-04-24T23:44:53.145Z,98.30
2018-04-24T23:47:20.681Z,98.40
2018-04-24T23:49:48.221Z,98.50
2018-04-24T23:52:19.757Z,98.70
2018-04-24T23:54:47.336Z,99.10
2018-04-24T23:57:15.641Z,99.90
2018-04-24T23:59:43.184Z,99.90
